sensor_id;sensor_type;location;lat;lon;timestamp;temperature;humidity
48728;DHT22;34527;45.618;5.130;2022-09-09T00:01:27;17.50;99.90
48728;DHT22;34527;45.618;5.130;2022-09-09T00:15:11;17.20;99.90
48728;DHT22;34527;45.618;5.130;2022-09-09T00:17:47;17.20;99.90
48728;DHT22;34527;45.618;5.130;2022-09-09T00:23:39;17.10;99.90
48728;DHT22;34527;45.618;5.130;2022-09-09T00:26:21;17.20;99.90
48728;DHT22;34527;45.618;5.130;2022-09-09T00:29:05;17.20;99.90
48728;DHT22;34527;45.618;5.130;2022-09-09T00:31:35;17.20;99.90
48728;DHT22;34527;45.618;5.130;2022-09-09T00:34:15;17.10;99.90
48728;DHT22;34527;45.618;5.130;2022-09-09T00:36:42;17.10;99.90
48728;DHT22;34527;45.618;5.130;2022-09-09T00:39:37;17.10;99.90
48728;DHT22;34527;45.618;5.130;2022-09-09T00:42:13;17.20;99.90
48728;DHT22;34527;45.618;5.130;2022-09-09T00:45:10;17.20;99.90
48728;DHT22;34527;45.618;5.130;2022-09-09T00:47:50;17.20;99.90
48728;DHT22;34527;45.618;5.130;2022-09-09T00:50:39;17.10;99.90
48728;DHT22;34527;45.618;5.130;2022-09-09T00:53:42;17.10;99.90
48728;DHT22;34527;45.618;5.130;2022-09-09T00:56:18;16.90;99.90
48728;DHT22;34527;45.618;5.130;2022-09-09T01:01:36;17.00;99.90
48728;DHT22;34527;45.618;5.130;2022-09-09T01:04:12;16.90;99.90
48728;DHT22;34527;45.618;5.130;2022-09-09T01:06:41;16.80;99.90
48728;DHT22;34527;45.618;5.130;2022-09-09T01:09:32;16.80;99.90
48728;DHT22;34527;45.618;5.130;2022-09-09T01:12:15;16.80;99.90
48728;DHT22;34527;45.618;5.130;2022-09-09T01:15:03;16.70;99.90
48728;DHT22;34527;45.618;5.130;2022-09-09T01:17:38;16.70;99.90
48728;DHT22;34527;45.618;5.130;2022-09-09T01:22:56;16.50;99.90
48728;DHT22;34527;45.618;5.130;2022-09-09T01:28:31;16.40;99.90
48728;DHT22;34527;45.618;5.130;2022-09-09T01:30:59;16.40;99.90
48728;DHT22;34527;45.618;5.130;2022-09-09T01:33:26;16.30;99.90
48728;DHT22;34527;45.618;5.130;2022-09-09T01:36:08;16.30;99.90
48728;DHT22;34527;45.618;5.130;2022-09-09T01:38:35;16.30;99.90
48728;DHT22;34527;45.618;5.130;2022-09-09T01:41:02;16.20;99.90
48728;DHT22;34527;45.618;5.130;2022-09-09T01:43:28;16.30;99.90
48728;DHT22;34527;45.618;5.130;2022-09-09T01:45:56;16.20;99.90
48728;DHT22;34527;45.618;5.130;2022-09-09T01:48:25;16.10;99.90
48728;DHT22;34527;45.618;5.130;2022-09-09T01:50:52;16.10;99.90
48728;DHT22;34527;45.618;5.130;2022-09-09T01:53:19;16.20;99.90
48728;DHT22;34527;45.618;5.130;2022-09-09T01:56:17;16.10;99.90
48728;DHT22;34527;45.618;5.130;2022-09-09T01:59:00;16.10;99.90
48728;DHT22;34527;45.618;5.130;2022-09-09T02:01:46;16.10;99.90
48728;DHT22;34527;45.618;5.130;2022-09-09T02:04:43;16.10;99.90
48728;DHT22;34527;45.618;5.130;2022-09-09T02:07:38;16.00;99.90
48728;DHT22;34527;45.618;5.130;2022-09-09T02:12:58;16.00;99.90
48728;DHT22;34527;45.618;5.130;2022-09-09T02:16:38;16.00;99.90
48728;DHT22;34527;45.618;5.130;2022-09-09T02:19:22;15.90;99.90
48728;DHT22;34527;45.618;5.130;2022-09-09T02:21:44;15.80;99.90
48728;DHT22;34527;45.618;5.130;2022-09-09T02:24:13;15.70;99.90
48728;DHT22;34527;45.618;5.130;2022-09-09T02:26:43;15.80;99.90
48728;DHT22;34527;45.618;5.130;2022-09-09T02:29:22;15.80;99.90
48728;DHT22;34527;45.618;5.130;2022-09-09T02:31:50;15.70;99.90
48728;DHT22;34527;45.618;5.130;2022-09-09T02:34:18;15.70;99.90
48728;DHT22;34527;45.618;5.130;2022-09-09T02:36:46;15.70;99.90
48728;DHT22;34527;45.618;5.130;2022-09-09T02:39:13;15.70;99.90
48728;DHT22;34527;45.618;5.130;2022-09-09T02:41:41;15.80;99.90
48728;DHT22;34527;45.618;5.130;2022-09-09T02:44:18;15.80;99.90
48728;DHT22;34527;45.618;5.130;2022-09-09T02:52:20;15.70;99.90
48728;DHT22;34527;45.618;5.130;2022-09-09T02:54:50;15.70;99.90
48728;DHT22;34527;45.618;5.130;2022-09-09T02:57:26;15.60;99.90
48728;DHT22;34527;45.618;5.130;2022-09-09T02:59:59;15.60;99.90
48728;DHT22;34527;45.618;5.130;2022-09-09T03:02:26;15.60;99.90
48728;DHT22;34527;45.618;5.130;2022-09-09T03:04:52;15.70;99.90
48728;DHT22;34527;45.618;5.130;2022-09-09T03:07:19;15.60;99.90
48728;DHT22;34527;45.618;5.130;2022-09-09T03:09:45;15.60;99.90
48728;DHT22;34527;45.618;5.130;2022-09-09T03:12:11;15.60;99.90
48728;DHT22;34527;45.618;5.130;2022-09-09T03:14:37;15.50;99.90
48728;DHT22;34527;45.618;5.130;2022-09-09T03:17:05;15.50;99.90
48728;DHT22;34527;45.618;5.130;2022-09-09T03:19:31;15.50;99.90
48728;DHT22;34527;45.618;5.130;2022-09-09T03:21:58;15.50;99.90
48728;DHT22;34527;45.618;5.130;2022-09-09T03:24:24;15.50;99.90
48728;DHT22;34527;45.618;5.130;2022-09-09T03:26:50;15.60;99.90
48728;DHT22;34527;45.618;5.130;2022-09-09T03:29:17;15.80;99.90
48728;DHT22;34527;45.618;5.130;2022-09-09T03:31:44;15.90;99.90
48728;DHT22;34527;45.618;5.130;2022-09-09T03:34:10;16.00;99.90
48728;DHT22;34527;45.618;5.130;2022-09-09T03:36:36;16.00;99.90
48728;DHT22;34527;45.618;5.130;2022-09-09T03:39:03;16.10;99.90
48728;DHT22;34527;45.618;5.130;2022-09-09T03:41:30;16.10;99.90
48728;DHT22;34527;45.618;5.130;2022-09-09T03:43:56;16.20;99.90
48728;DHT22;34527;45.618;5.130;2022-09-09T03:46:24;16.20;99.90
48728;DHT22;34527;45.618;5.130;2022-09-09T03:48:50;16.20;99.90
48728;DHT22;34527;45.618;5.130;2022-09-09T03:51:18;16.20;99.90
48728;DHT22;34527;45.618;5.130;2022-09-09T03:53:44;16.10;99.90
48728;DHT22;34527;45.618;5.130;2022-09-09T03:56:10;16.20;99.90
48728;DHT22;34527;45.618;5.130;2022-09-09T03:58:37;16.30;99.90
48728;DHT22;34527;45.618;5.130;2022-09-09T04:01:06;16.30;99.90
48728;DHT22;34527;45.618;5.130;2022-09-09T04:03:34;16.30;99.90
48728;DHT22;34527;45.618;5.130;2022-09-09T04:06:01;16.50;99.90
48728;DHT22;34527;45.618;5.130;2022-09-09T04:08:29;16.60;99.90
48728;DHT22;34527;45.618;5.130;2022-09-09T04:10:57;16.60;99.90
48728;DHT22;34527;45.618;5.130;2022-09-09T04:13:24;16.70;99.90
48728;DHT22;34527;45.618;5.130;2022-09-09T04:15:51;16.70;99.90
48728;DHT22;34527;45.618;5.130;2022-09-09T04:18:18;16.80;99.90
48728;DHT22;34527;45.618;5.130;2022-09-09T04:20:47;16.80;99.90
48728;DHT22;34527;45.618;5.130;2022-09-09T04:23:13;16.80;99.90
48728;DHT22;34527;45.618;5.130;2022-09-09T04:25:50;16.90;99.90
48728;DHT22;34527;45.618;5.130;2022-09-09T04:28:18;16.90;99.90
48728;DHT22;34527;45.618;5.130;2022-09-09T04:30:45;17.00;99.90
48728;DHT22;34527;45.618;5.130;2022-09-09T04:33:12;17.00;99.90
48728;DHT22;34527;45.618;5.130;2022-09-09T04:35:39;17.00;99.90
48728;DHT22;34527;45.618;5.130;2022-09-09T04:38:09;17.00;99.90
48728;DHT22;34527;45.618;5.130;2022-09-09T04:40:35;16.90;99.90
48728;DHT22;34527;45.618;5.130;2022-09-09T04:43:02;16.90;99.90
48728;DHT22;34527;45.618;5.130;2022-09-09T04:45:31;16.90;99.90
48728;DHT22;34527;45.618;5.130;2022-09-09T04:47:57;16.90;99.90
48728;DHT22;34527;45.618;5.130;2022-09-09T04:50:23;16.90;99.90
48728;DHT22;34527;45.618;5.130;2022-09-09T04:52:50;16.80;99.90
48728;DHT22;34527;45.618;5.130;2022-09-09T04:55:16;16.90;99.90
48728;DHT22;34527;45.618;5.130;2022-09-09T04:57:42;16.80;99.90
48728;DHT22;34527;45.618;5.130;2022-09-09T05:00:08;16.80;99.90
48728;DHT22;34527;45.618;5.130;2022-09-09T05:02:39;16.80;99.90
48728;DHT22;34527;45.618;5.130;2022-09-09T05:05:06;16.80;99.90
48728;DHT22;34527;45.618;5.130;2022-09-09T05:07:32;16.80;99.90
48728;DHT22;34527;45.618;5.130;2022-09-09T05:09:58;16.80;99.90
48728;DHT22;34527;45.618;5.130;2022-09-09T05:12:24;16.70;99.90
48728;DHT22;34527;45.618;5.130;2022-09-09T05:14:51;16.80;99.90
48728;DHT22;34527;45.618;5.130;2022-09-09T05:17:17;16.80;99.90
48728;DHT22;34527;45.618;5.130;2022-09-09T05:19:43;16.80;99.90
48728;DHT22;34527;45.618;5.130;2022-09-09T05:22:10;16.80;99.90
48728;DHT22;34527;45.618;5.130;2022-09-09T05:24:37;16.80;99.90
48728;DHT22;34527;45.618;5.130;2022-09-09T05:27:04;16.80;99.90
48728;DHT22;34527;45.618;5.130;2022-09-09T05:29:32;16.80;99.90
48728;DHT22;34527;45.618;5.130;2022-09-09T05:32:01;16.80;99.90
48728;DHT22;34527;45.618;5.130;2022-09-09T05:34:27;16.90;99.90
48728;DHT22;34527;45.618;5.130;2022-09-09T05:36:53;16.90;99.90
48728;DHT22;34527;45.618;5.130;2022-09-09T05:39:19;16.80;99.90
48728;DHT22;34527;45.618;5.130;2022-09-09T05:41:45;16.90;99.90
48728;DHT22;34527;45.618;5.130;2022-09-09T05:44:10;16.90;99.90
48728;DHT22;34527;45.618;5.130;2022-09-09T05:46:36;16.80;99.90
48728;DHT22;34527;45.618;5.130;2022-09-09T05:49:03;16.70;99.90
48728;DHT22;34527;45.618;5.130;2022-09-09T05:51:31;16.70;99.90
48728;DHT22;34527;45.618;5.130;2022-09-09T05:53:57;16.70;99.90
48728;DHT22;34527;45.618;5.130;2022-09-09T05:56:28;16.80;99.90
48728;DHT22;34527;45.618;5.130;2022-09-09T05:58:55;16.80;99.90
48728;DHT22;34527;45.618;5.130;2022-09-09T06:01:26;16.80;99.90
48728;DHT22;34527;45.618;5.130;2022-09-09T06:03:53;16.90;99.90
48728;DHT22;34527;45.618;5.130;2022-09-09T06:06:24;17.00;99.90
48728;DHT22;34527;45.618;5.130;2022-09-09T06:08:53;17.00;99.90
48728;DHT22;34527;45.618;5.130;2022-09-09T06:11:24;17.00;99.90
48728;DHT22;34527;45.618;5.130;2022-09-09T06:13:50;17.00;99.90
48728;DHT22;34527;45.618;5.130;2022-09-09T06:16:25;17.00;99.90
48728;DHT22;34527;45.618;5.130;2022-09-09T06:18:55;17.00;99.90
48728;DHT22;34527;45.618;5.130;2022-09-09T06:21:30;17.10;99.90
48728;DHT22;34527;45.618;5.130;2022-09-09T06:23:56;17.10;99.90
48728;DHT22;34527;45.618;5.130;2022-09-09T06:26:24;17.10;99.90
48728;DHT22;34527;45.618;5.130;2022-09-09T06:28:53;17.00;99.90
48728;DHT22;34527;45.618;5.130;2022-09-09T06:31:24;17.10;99.90
48728;DHT22;34527;45.618;5.130;2022-09-09T06:33:52;17.20;99.90
48728;DHT22;34527;45.618;5.130;2022-09-09T06:36:20;17.30;99.90
48728;DHT22;34527;45.618;5.130;2022-09-09T06:38:46;17.50;99.90
48728;DHT22;34527;45.618;5.130;2022-09-09T06:41:14;17.50;99.90
48728;DHT22;34527;45.618;5.130;2022-09-09T06:43:41;17.60;99.90
48728;DHT22;34527;45.618;5.130;2022-09-09T06:48:44;17.60;99.90
48728;DHT22;34527;45.618;5.130;2022-09-09T06:51:13;17.70;99.90
48728;DHT22;34527;45.618;5.130;2022-09-09T06:53:41;17.80;99.90
48728;DHT22;34527;45.618;5.130;2022-09-09T06:58:45;18.00;99.90
48728;DHT22;34527;45.618;5.130;2022-09-09T07:01:14;18.10;99.90
48728;DHT22;34527;45.618;5.130;2022-09-09T07:03:41;18.20;99.90
48728;DHT22;34527;45.618;5.130;2022-09-09T07:06:14;18.30;99.90
48728;DHT22;34527;45.618;5.130;2022-09-09T07:08:43;18.40;99.90
48728;DHT22;34527;45.618;5.130;2022-09-09T07:11:14;18.50;99.90
48728;DHT22;34527;45.618;5.130;2022-09-09T07:13:41;18.60;99.90
48728;DHT22;34527;45.618;5.130;2022-09-09T07:16:14;18.60;99.90
48728;DHT22;34527;45.618;5.130;2022-09-09T07:18:41;18.70;99.90
48728;DHT22;34527;45.618;5.130;2022-09-09T07:21:10;18.80;99.90
48728;DHT22;34527;45.618;5.130;2022-09-09T07:23:42;18.90;99.90
48728;DHT22;34527;45.618;5.130;2022-09-09T07:26:17;19.00;99.90
48728;DHT22;34527;45.618;5.130;2022-09-09T07:28:45;19.20;99.90
48728;DHT22;34527;45.618;5.130;2022-09-09T07:31:16;19.30;99.90
48728;DHT22;34527;45.618;5.130;2022-09-09T07:33:46;19.40;99.90
48728;DHT22;34527;45.618;5.130;2022-09-09T07:36:22;19.40;99.90
48728;DHT22;34527;45.618;5.130;2022-09-09T07:38:53;19.50;99.90
48728;DHT22;34527;45.618;5.130;2022-09-09T07:41:32;19.60;99.90
48728;DHT22;34527;45.618;5.130;2022-09-09T07:44:04;19.70;99.90
48728;DHT22;34527;45.618;5.130;2022-09-09T07:46:30;19.80;99.90
48728;DHT22;34527;45.618;5.130;2022-09-09T07:48:56;19.90;99.90
48728;DHT22;34527;45.618;5.130;2022-09-09T07:51:32;19.90;99.90
48728;DHT22;34527;45.618;5.130;2022-09-09T07:54:00;20.00;99.90
48728;DHT22;34527;45.618;5.130;2022-09-09T07:56:29;20.10;99.90
48728;DHT22;34527;45.618;5.130;2022-09-09T07:58:56;20.40;99.90
48728;DHT22;34527;45.618;5.130;2022-09-09T08:01:26;20.50;99.90
48728;DHT22;34527;45.618;5.130;2022-09-09T08:03:58;20.50;99.90
48728;DHT22;34527;45.618;5.130;2022-09-09T08:06:26;20.60;99.90
48728;DHT22;34527;45.618;5.130;2022-09-09T08:08:53;20.70;99.90
48728;DHT22;34527;45.618;5.130;2022-09-09T08:11:22;20.70;99.90
48728;DHT22;34527;45.618;5.130;2022-09-09T08:13:51;20.70;99.90
48728;DHT22;34527;45.618;5.130;2022-09-09T08:16:24;20.80;99.90
48728;DHT22;34527;45.618;5.130;2022-09-09T08:18:51;20.70;99.90
48728;DHT22;34527;45.618;5.130;2022-09-09T08:21:19;20.70;99.90
48728;DHT22;34527;45.618;5.130;2022-09-09T08:23:47;20.90;99.90
48728;DHT22;34527;45.618;5.130;2022-09-09T08:26:20;20.90;99.90
48728;DHT22;34527;45.618;5.130;2022-09-09T08:28:50;21.00;99.90
48728;DHT22;34527;45.618;5.130;2022-09-09T08:31:23;21.00;99.90
48728;DHT22;34527;45.618;5.130;2022-09-09T08:33:49;21.10;99.90
48728;DHT22;34527;45.618;5.130;2022-09-09T08:36:18;20.90;99.90
48728;DHT22;34527;45.618;5.130;2022-09-09T08:38:48;21.00;99.90
48728;DHT22;34527;45.618;5.130;2022-09-09T08:46:44;21.20;99.90
48728;DHT22;34527;45.618;5.130;2022-09-09T08:49:37;21.20;99.90
48728;DHT22;34527;45.618;5.130;2022-09-09T08:52:12;21.40;99.90
48728;DHT22;34527;45.618;5.130;2022-09-09T08:54:39;21.40;99.90
48728;DHT22;34527;45.618;5.130;2022-09-09T08:57:11;21.40;99.90
48728;DHT22;34527;45.618;5.130;2022-09-09T08:59:40;21.40;99.90
48728;DHT22;34527;45.618;5.130;2022-09-09T09:08:26;21.40;99.90
48728;DHT22;34527;45.618;5.130;2022-09-09T09:10:57;21.60;99.90
48728;DHT22;34527;45.618;5.130;2022-09-09T09:18:54;22.00;99.90
48728;DHT22;34527;45.618;5.130;2022-09-09T09:21:41;22.10;99.90
48728;DHT22;34527;45.618;5.130;2022-09-09T09:24:36;22.20;99.90
48728;DHT22;34527;45.618;5.130;2022-09-09T09:27:18;22.10;99.90
48728;DHT22;34527;45.618;5.130;2022-09-09T09:29:48;22.20;99.90
48728;DHT22;34527;45.618;5.130;2022-09-09T09:32:18;22.30;99.90
48728;DHT22;34527;45.618;5.130;2022-09-09T09:34:51;22.30;99.90
48728;DHT22;34527;45.618;5.130;2022-09-09T09:37:23;22.20;99.90
48728;DHT22;34527;45.618;5.130;2022-09-09T09:39:53;22.00;99.90
48728;DHT22;34527;45.618;5.130;2022-09-09T09:42:19;21.80;99.90
48728;DHT22;34527;45.618;5.130;2022-09-09T09:44:45;21.90;99.90
48728;DHT22;34527;45.618;5.130;2022-09-09T09:47:18;22.10;99.90
48728;DHT22;34527;45.618;5.130;2022-09-09T09:49:55;22.30;99.90
48728;DHT22;34527;45.618;5.130;2022-09-09T09:52:24;22.00;99.90
48728;DHT22;34527;45.618;5.130;2022-09-09T09:54:50;21.80;99.90
48728;DHT22;34527;45.618;5.130;2022-09-09T09:57:18;21.80;99.90
48728;DHT22;34527;45.618;5.130;2022-09-09T09:59:49;21.60;99.90
48728;DHT22;34527;45.618;5.130;2022-09-09T10:02:25;21.40;99.90
48728;DHT22;34527;45.618;5.130;2022-09-09T10:05:04;21.30;99.90
48728;DHT22;34527;45.618;5.130;2022-09-09T10:07:30;21.30;99.90
48728;DHT22;34527;45.618;5.130;2022-09-09T10:09:57;21.20;99.90
48728;DHT22;34527;45.618;5.130;2022-09-09T10:12:30;21.20;99.90
48728;DHT22;34527;45.618;5.130;2022-09-09T10:15:26;21.20;99.90
48728;DHT22;34527;45.618;5.130;2022-09-09T10:24:45;21.20;99.90
48728;DHT22;34527;45.618;5.130;2022-09-09T10:30:14;21.90;99.90
48728;DHT22;34527;45.618;5.130;2022-09-09T10:38:30;22.50;99.90
48728;DHT22;34527;45.618;5.130;2022-09-09T10:41:05;22.70;99.90
48728;DHT22;34527;45.618;5.130;2022-09-09T10:52:09;23.30;99.90
48728;DHT22;34527;45.618;5.130;2022-09-09T10:55:16;23.40;99.90
48728;DHT22;34527;45.618;5.130;2022-09-09T10:57:22;23.60;99.90
48728;DHT22;34527;45.618;5.130;2022-09-09T10:59:53;23.80;99.90
48728;DHT22;34527;45.618;5.130;2022-09-09T11:02:26;23.80;99.90
48728;DHT22;34527;45.618;5.130;2022-09-09T11:04:54;23.90;99.90
48728;DHT22;34527;45.618;5.130;2022-09-09T11:07:51;23.90;99.90
48728;DHT22;34527;45.618;5.130;2022-09-09T11:10:23;24.10;99.90
48728;DHT22;34527;45.618;5.130;2022-09-09T11:12:54;24.10;99.90
48728;DHT22;34527;45.618;5.130;2022-09-09T11:15:51;24.30;99.90
48728;DHT22;34527;45.618;5.130;2022-09-09T11:18:22;24.20;99.90
48728;DHT22;34527;45.618;5.130;2022-09-09T11:20:53;24.00;99.90
48728;DHT22;34527;45.618;5.130;2022-09-09T11:23:26;23.80;99.90
48728;DHT22;34527;45.618;5.130;2022-09-09T11:25:59;23.90;99.90
48728;DHT22;34527;45.618;5.130;2022-09-09T11:34:27;24.60;99.90
48728;DHT22;34527;45.618;5.130;2022-09-09T11:40:17;24.50;99.90
48728;DHT22;34527;45.618;5.130;2022-09-09T11:42:46;23.90;99.90
48728;DHT22;34527;45.618;5.130;2022-09-09T11:45:21;23.80;99.90
48728;DHT22;34527;45.618;5.130;2022-09-09T11:47:55;23.60;99.90
48728;DHT22;34527;45.618;5.130;2022-09-09T11:52:50;23.60;99.90
48728;DHT22;34527;45.618;5.130;2022-09-09T11:55:30;23.60;99.90
48728;DHT22;34527;45.618;5.130;2022-09-09T12:00:39;23.60;99.90
48728;DHT22;34527;45.618;5.130;2022-09-09T12:06:09;23.40;99.90
48728;DHT22;34527;45.618;5.130;2022-09-09T12:08:41;23.50;99.90
48728;DHT22;34527;45.618;5.130;2022-09-09T12:11:08;23.30;99.90
48728;DHT22;34527;45.618;5.130;2022-09-09T12:13:34;23.30;99.90
48728;DHT22;34527;45.618;5.130;2022-09-09T12:16:02;23.40;99.90
48728;DHT22;34527;45.618;5.130;2022-09-09T12:18:37;23.60;99.90
48728;DHT22;34527;45.618;5.130;2022-09-09T12:23:55;23.80;99.90
48728;DHT22;34527;45.618;5.130;2022-09-09T12:26:33;24.00;99.90
48728;DHT22;34527;45.618;5.130;2022-09-09T12:34:47;24.30;99.90
48728;DHT22;34527;45.618;5.130;2022-09-09T12:37:56;24.50;99.90
48728;DHT22;34527;45.618;5.130;2022-09-09T12:40:27;24.50;99.90
48728;DHT22;34527;45.618;5.130;2022-09-09T12:42:53;24.80;99.90
48728;DHT22;34527;45.618;5.130;2022-09-09T12:45:21;24.70;99.90
48728;DHT22;34527;45.618;5.130;2022-09-09T12:47:50;24.30;99.90
48728;DHT22;34527;45.618;5.130;2022-09-09T12:50:24;24.10;99.90
48728;DHT22;34527;45.618;5.130;2022-09-09T12:52:54;24.00;99.90
48728;DHT22;34527;45.618;5.130;2022-09-09T12:55:36;24.00;99.90
48728;DHT22;34527;45.618;5.130;2022-09-09T12:58:04;24.10;99.90
48728;DHT22;34527;45.618;5.130;2022-09-09T13:00:32;24.10;99.90
48728;DHT22;34527;45.618;5.130;2022-09-09T13:03:17;24.20;99.90
48728;DHT22;34527;45.618;5.130;2022-09-09T13:05:44;24.30;99.90
48728;DHT22;34527;45.618;5.130;2022-09-09T13:08:11;24.20;99.90
48728;DHT22;34527;45.618;5.130;2022-09-09T13:10:42;24.00;99.90
48728;DHT22;34527;45.618;5.130;2022-09-09T13:13:15;23.90;99.90
48728;DHT22;34527;45.618;5.130;2022-09-09T13:15:52;23.80;99.90
48728;DHT22;34527;45.618;5.130;2022-09-09T13:18:22;23.80;99.90
48728;DHT22;34527;45.618;5.130;2022-09-09T13:20:50;23.80;99.90
48728;DHT22;34527;45.618;5.130;2022-09-09T13:23:18;23.70;99.90
48728;DHT22;34527;45.618;5.130;2022-09-09T13:25:59;23.70;99.90
48728;DHT22;34527;45.618;5.130;2022-09-09T13:28:28;23.60;99.90
48728;DHT22;34527;45.618;5.130;2022-09-09T13:31:00;23.60;99.90
48728;DHT22;34527;45.618;5.130;2022-09-09T13:33:37;23.90;99.90
48728;DHT22;34527;45.618;5.130;2022-09-09T13:36:08;23.90;99.90
48728;DHT22;34527;45.618;5.130;2022-09-09T13:38:55;24.00;99.90
48728;DHT22;34527;45.618;5.130;2022-09-09T13:41:23;24.20;99.90
48728;DHT22;34527;45.618;5.130;2022-09-09T13:43:51;24.50;99.90
48728;DHT22;34527;45.618;5.130;2022-09-09T13:46:28;24.80;99.90
48728;DHT22;34527;45.618;5.130;2022-09-09T13:49:01;24.80;99.90
48728;DHT22;34527;45.618;5.130;2022-09-09T13:51:32;24.70;99.90
48728;DHT22;34527;45.618;5.130;2022-09-09T13:53:59;24.60;99.90
48728;DHT22;34527;45.618;5.130;2022-09-09T13:56:26;24.30;99.90
48728;DHT22;34527;45.618;5.130;2022-09-09T13:58:52;24.10;99.90
48728;DHT22;34527;45.618;5.130;2022-09-09T14:01:18;24.20;99.90
48728;DHT22;34527;45.618;5.130;2022-09-09T14:03:44;24.20;99.90
48728;DHT22;34527;45.618;5.130;2022-09-09T14:06:10;24.10;99.90
48728;DHT22;34527;45.618;5.130;2022-09-09T14:08:36;24.20;99.90
48728;DHT22;34527;45.618;5.130;2022-09-09T14:11:03;24.10;99.90
48728;DHT22;34527;45.618;5.130;2022-09-09T14:13:29;24.30;99.90
48728;DHT22;34527;45.618;5.130;2022-09-09T14:15:55;24.10;99.90
48728;DHT22;34527;45.618;5.130;2022-09-09T14:18:22;24.10;99.90
48728;DHT22;34527;45.618;5.130;2022-09-09T14:20:49;24.00;99.90
48728;DHT22;34527;45.618;5.130;2022-09-09T14:23:16;24.00;99.90
48728;DHT22;34527;45.618;5.130;2022-09-09T14:25:43;23.90;99.90
48728;DHT22;34527;45.618;5.130;2022-09-09T14:28:11;23.70;99.90
48728;DHT22;34527;45.618;5.130;2022-09-09T14:30:39;23.80;99.90
48728;DHT22;34527;45.618;5.130;2022-09-09T14:33:05;24.00;99.90
48728;DHT22;34527;45.618;5.130;2022-09-09T14:35:31;23.90;99.90
48728;DHT22;34527;45.618;5.130;2022-09-09T14:37:59;23.80;99.90
48728;DHT22;34527;45.618;5.130;2022-09-09T14:40:25;23.80;99.90
48728;DHT22;34527;45.618;5.130;2022-09-09T14:42:52;23.80;99.90
48728;DHT22;34527;45.618;5.130;2022-09-09T14:45:18;24.00;99.90
48728;DHT22;34527;45.618;5.130;2022-09-09T14:47:47;23.90;99.90
48728;DHT22;34527;45.618;5.130;2022-09-09T14:50:13;23.80;99.90
48728;DHT22;34527;45.618;5.130;2022-09-09T14:52:39;23.80;99.90
48728;DHT22;34527;45.618;5.130;2022-09-09T14:55:05;23.80;99.90
48728;DHT22;34527;45.618;5.130;2022-09-09T14:57:32;23.80;99.90
48728;DHT22;34527;45.618;5.130;2022-09-09T15:00:00;23.80;99.90
48728;DHT22;34527;45.618;5.130;2022-09-09T15:02:26;23.90;99.90
48728;DHT22;34527;45.618;5.130;2022-09-09T15:04:52;24.00;99.90
48728;DHT22;34527;45.618;5.130;2022-09-09T15:07:18;24.10;99.90
48728;DHT22;34527;45.618;5.130;2022-09-09T15:09:45;24.00;99.90
48728;DHT22;34527;45.618;5.130;2022-09-09T15:12:13;23.90;99.90
48728;DHT22;34527;45.618;5.130;2022-09-09T15:14:39;24.00;99.90
48728;DHT22;34527;45.618;5.130;2022-09-09T15:17:05;24.00;99.90
48728;DHT22;34527;45.618;5.130;2022-09-09T15:19:31;24.00;99.90
48728;DHT22;34527;45.618;5.130;2022-09-09T15:21:57;23.90;99.90
48728;DHT22;34527;45.618;5.130;2022-09-09T15:24:25;23.90;99.90
48728;DHT22;34527;45.618;5.130;2022-09-09T15:26:52;23.80;99.90
48728;DHT22;34527;45.618;5.130;2022-09-09T15:29:19;23.80;99.90
48728;DHT22;34527;45.618;5.130;2022-09-09T15:31:45;23.70;99.90
48728;DHT22;34527;45.618;5.130;2022-09-09T15:34:12;23.70;99.90
48728;DHT22;34527;45.618;5.130;2022-09-09T15:36:41;23.70;99.90
48728;DHT22;34527;45.618;5.130;2022-09-09T15:39:12;23.70;99.90
48728;DHT22;34527;45.618;5.130;2022-09-09T15:41:39;23.70;99.90
48728;DHT22;34527;45.618;5.130;2022-09-09T15:44:05;23.60;99.90
48728;DHT22;34527;45.618;5.130;2022-09-09T15:46:39;23.60;99.90
48728;DHT22;34527;45.618;5.130;2022-09-09T15:49:14;23.60;99.90
48728;DHT22;34527;45.618;5.130;2022-09-09T15:51:45;23.70;99.90
48728;DHT22;34527;45.618;5.130;2022-09-09T15:54:17;23.70;99.90
48728;DHT22;34527;45.618;5.130;2022-09-09T15:56:44;23.70;99.90
48728;DHT22;34527;45.618;5.130;2022-09-09T15:59:11;23.70;99.90
48728;DHT22;34527;45.618;5.130;2022-09-09T16:01:37;23.80;99.90
48728;DHT22;34527;45.618;5.130;2022-09-09T16:04:05;23.80;99.90
48728;DHT22;34527;45.618;5.130;2022-09-09T16:06:32;23.80;99.90
48728;DHT22;34527;45.618;5.130;2022-09-09T16:08:59;23.80;99.90
48728;DHT22;34527;45.618;5.130;2022-09-09T16:11:32;23.90;99.90
48728;DHT22;34527;45.618;5.130;2022-09-09T16:13:59;23.90;99.90
48728;DHT22;34527;45.618;5.130;2022-09-09T16:16:27;23.80;99.90
48728;DHT22;34527;45.618;5.130;2022-09-09T16:18:55;23.80;99.90
48728;DHT22;34527;45.618;5.130;2022-09-09T16:21:23;23.90;99.90
48728;DHT22;34527;45.618;5.130;2022-09-09T16:23:55;23.90;99.90
48728;DHT22;34527;45.618;5.130;2022-09-09T16:26:22;23.90;99.90
48728;DHT22;34527;45.618;5.130;2022-09-09T16:28:48;23.70;99.90
48728;DHT22;34527;45.618;5.130;2022-09-09T16:31:20;23.70;99.90
48728;DHT22;34527;45.618;5.130;2022-09-09T16:33:46;23.70;99.90
48728;DHT22;34527;45.618;5.130;2022-09-09T16:36:18;23.60;99.90
48728;DHT22;34527;45.618;5.130;2022-09-09T16:38:44;23.60;99.90
48728;DHT22;34527;45.618;5.130;2022-09-09T16:41:11;23.50;99.90
48728;DHT22;34527;45.618;5.130;2022-09-09T16:43:38;23.40;99.90
48728;DHT22;34527;45.618;5.130;2022-09-09T16:46:16;23.40;99.90
48728;DHT22;34527;45.618;5.130;2022-09-09T16:48:44;23.40;99.90
48728;DHT22;34527;45.618;5.130;2022-09-09T16:53:41;23.40;99.90
48728;DHT22;34527;45.618;5.130;2022-09-09T16:56:13;23.30;99.90
48728;DHT22;34527;45.618;5.130;2022-09-09T16:58:40;23.30;99.90
48728;DHT22;34527;45.618;5.130;2022-09-09T17:01:07;23.30;99.90
48728;DHT22;34527;45.618;5.130;2022-09-09T17:03:33;23.30;99.90
48728;DHT22;34527;45.618;5.130;2022-09-09T17:05:59;23.30;99.90
48728;DHT22;34527;45.618;5.130;2022-09-09T17:08:30;23.30;99.90
48728;DHT22;34527;45.618;5.130;2022-09-09T17:10:57;23.20;99.90
48728;DHT22;34527;45.618;5.130;2022-09-09T17:13:23;23.20;99.90
48728;DHT22;34527;45.618;5.130;2022-09-09T17:15:51;23.20;99.90
48728;DHT22;34527;45.618;5.130;2022-09-09T17:18:17;23.10;99.90
48728;DHT22;34527;45.618;5.130;2022-09-09T17:20:43;23.10;99.90
48728;DHT22;34527;45.618;5.130;2022-09-09T17:23:12;23.00;99.90
48728;DHT22;34527;45.618;5.130;2022-09-09T17:25:41;22.80;99.90
48728;DHT22;34527;45.618;5.130;2022-09-09T17:28:07;22.80;99.90
48728;DHT22;34527;45.618;5.130;2022-09-09T17:30:36;22.70;99.90
48728;DHT22;34527;45.618;5.130;2022-09-09T17:33:03;22.60;99.90
48728;DHT22;34527;45.618;5.130;2022-09-09T17:35:30;22.60;99.90
48728;DHT22;34527;45.618;5.130;2022-09-09T17:37:56;22.50;99.90